sensor_id;sensor_type;location;lat;lon;timestamp;P1;durP1;ratioP1;P2;durP2;ratioP2
9524;SDS011;15940;48.734;9.112;2023-02-11T00:01:20;29.43;;;17.63;;
9524;SDS011;15940;48.734;9.112;2023-02-11T00:03:58;30.43;;;17.77;;
9524;SDS011;15940;48.734;9.112;2023-02-11T00:06:27;30.27;;;18.37;;
9524;SDS011;15940;48.734;9.112;2023-02-11T00:08:57;24.87;;;16.90;;
9524;SDS011;15940;48.734;9.112;2023-02-11T00:11:25;27.00;;;17.37;;
9524;SDS011;15940;48.734;9.112;2023-02-11T00:13:56;33.60;;;18.13;;
9524;SDS011;15940;48.734;9.112;2023-02-11T00:16:27;28.27;;;17.70;;
9524;SDS011;15940;48.734;9.112;2023-02-11T00:18:57;29.83;;;18.23;;
9524;SDS011;15940;48.734;9.112;2023-02-11T00:21:24;31.23;;;19.50;;
9524;SDS011;15940;48.734;9.112;2023-02-11T00:23:52;32.57;;;18.53;;
9524;SDS011;15940;48.734;9.112;2023-02-11T00:26:22;27.23;;;17.83;;
9524;SDS011;15940;48.734;9.112;2023-02-11T00:28:52;30.53;;;18.27;;
9524;SDS011;15940;48.734;9.112;2023-02-11T00:31:21;28.63;;;16.77;;
9524;SDS011;15940;48.734;9.112;2023-02-11T00:33:58;28.07;;;18.10;;
9524;SDS011;15940;48.734;9.112;2023-02-11T00:36:27;27.80;;;16.97;;
9524;SDS011;15940;48.734;9.112;2023-02-11T00:38:55;30.93;;;18.50;;
9524;SDS011;15940;48.734;9.112;2023-02-11T00:41:24;34.13;;;18.60;;
9524;SDS011;15940;48.734;9.112;2023-02-11T00:43:59;27.50;;;16.90;;
9524;SDS011;15940;48.734;9.112;2023-02-11T00:46:27;29.67;;;17.93;;
9524;SDS011;15940;48.734;9.112;2023-02-11T00:48:56;27.40;;;17.10;;
9524;SDS011;15940;48.734;9.112;2023-02-11T00:51:23;29.47;;;16.23;;
9524;SDS011;15940;48.734;9.112;2023-02-11T00:53:50;27.50;;;17.20;;
9524;SDS011;15940;48.734;9.112;2023-02-11T00:56:20;30.20;;;17.23;;
9524;SDS011;15940;48.734;9.112;2023-02-11T00:58:48;28.37;;;17.67;;
9524;SDS011;15940;48.734;9.112;2023-02-11T01:01:16;25.50;;;16.03;;
9524;SDS011;15940;48.734;9.112;2023-02-11T01:03:45;25.60;;;15.80;;
9524;SDS011;15940;48.734;9.112;2023-02-11T01:06:12;26.93;;;15.93;;
9524;SDS011;15940;48.734;9.112;2023-02-11T01:08:41;26.00;;;16.33;;
9524;SDS011;15940;48.734;9.112;2023-02-11T01:11:11;28.50;;;15.77;;
9524;SDS011;15940;48.734;9.112;2023-02-11T01:13:41;24.57;;;15.70;;
9524;SDS011;15940;48.734;9.112;2023-02-11T01:16:12;23.07;;;14.73;;
9524;SDS011;15940;48.734;9.112;2023-02-11T01:18:42;25.47;;;16.13;;
9524;SDS011;15940;48.734;9.112;2023-02-11T01:21:11;23.77;;;14.90;;
9524;SDS011;15940;48.734;9.112;2023-02-11T01:23:38;26.83;;;14.73;;
9524;SDS011;15940;48.734;9.112;2023-02-11T01:26:07;28.30;;;16.03;;
9524;SDS011;15940;48.734;9.112;2023-02-11T01:28:34;24.27;;;15.87;;
9524;SDS011;15940;48.734;9.112;2023-02-11T01:31:01;26.43;;;15.60;;
9524;SDS011;15940;48.734;9.112;2023-02-11T01:33:30;27.17;;;16.20;;
9524;SDS011;15940;48.734;9.112;2023-02-11T01:36:01;24.30;;;14.83;;
9524;SDS011;15940;48.734;9.112;2023-02-11T01:38:29;27.13;;;15.23;;
9524;SDS011;15940;48.734;9.112;2023-02-11T01:40:58;25.43;;;15.53;;
9524;SDS011;15940;48.734;9.112;2023-02-11T01:43:30;25.10;;;14.70;;
9524;SDS011;15940;48.734;9.112;2023-02-11T01:46:02;26.00;;;15.70;;
9524;SDS011;15940;48.734;9.112;2023-02-11T01:49:00;23.37;;;14.43;;
9524;SDS011;15940;48.734;9.112;2023-02-11T01:51:34;22.47;;;14.53;;
9524;SDS011;15940;48.734;9.112;2023-02-11T01:54:09;26.20;;;16.50;;
9524;SDS011;15940;48.734;9.112;2023-02-11T01:56:57;27.03;;;16.10;;
9524;SDS011;15940;48.734;9.112;2023-02-11T01:59:46;28.97;;;16.93;;
9524;SDS011;15940;48.734;9.112;2023-02-11T02:02:25;26.97;;;16.23;;
9524;SDS011;15940;48.734;9.112;2023-02-11T02:05:02;28.93;;;16.13;;
9524;SDS011;15940;48.734;9.112;2023-02-11T02:07:43;21.90;;;14.33;;
9524;SDS011;15940;48.734;9.112;2023-02-11T02:10:22;22.40;;;14.80;;
9524;SDS011;15940;48.734;9.112;2023-02-11T02:12:57;25.07;;;15.63;;
9524;SDS011;15940;48.734;9.112;2023-02-11T02:15:25;25.67;;;15.53;;
9524;SDS011;15940;48.734;9.112;2023-02-11T02:17:57;22.23;;;14.63;;
9524;SDS011;15940;48.734;9.112;2023-02-11T02:27:27;24.57;;;15.07;;
9524;SDS011;15940;48.734;9.112;2023-02-11T02:30:16;26.43;;;15.80;;
9524;SDS011;15940;48.734;9.112;2023-02-11T02:33:31;24.57;;;14.93;;
9524;SDS011;15940;48.734;9.112;2023-02-11T02:36:11;24.93;;;15.77;;
9524;SDS011;15940;48.734;9.112;2023-02-11T02:38:46;24.07;;;15.13;;
9524;SDS011;15940;48.734;9.112;2023-02-11T02:41:20;26.57;;;16.23;;
9524;SDS011;15940;48.734;9.112;2023-02-11T02:43:53;28.07;;;15.70;;
9524;SDS011;15940;48.734;9.112;2023-02-11T02:46:21;24.90;;;16.13;;
9524;SDS011;15940;48.734;9.112;2023-02-11T02:48:52;24.43;;;15.93;;
9524;SDS011;15940;48.734;9.112;2023-02-11T02:51:28;27.97;;;15.97;;
9524;SDS011;15940;48.734;9.112;2023-02-11T02:58:01;27.67;;;15.63;;
9524;SDS011;15940;48.734;9.112;2023-02-11T03:00:47;22.83;;;15.13;;
9524;SDS011;15940;48.734;9.112;2023-02-11T03:03:28;23.93;;;15.10;;
9524;SDS011;15940;48.734;9.112;2023-02-11T03:06:11;24.13;;;16.10;;
9524;SDS011;15940;48.734;9.112;2023-02-11T03:08:44;25.53;;;15.83;;
9524;SDS011;15940;48.734;9.112;2023-02-11T03:11:17;23.97;;;15.17;;
9524;SDS011;15940;48.734;9.112;2023-02-11T03:13:46;25.90;;;15.53;;
9524;SDS011;15940;48.734;9.112;2023-02-11T03:16:17;22.97;;;15.37;;
9524;SDS011;15940;48.734;9.112;2023-02-11T03:18:49;24.20;;;15.50;;
9524;SDS011;15940;48.734;9.112;2023-02-11T03:21:30;24.13;;;15.70;;
9524;SDS011;15940;48.734;9.112;2023-02-11T03:24:05;22.10;;;14.70;;
9524;SDS011;15940;48.734;9.112;2023-02-11T03:26:37;26.50;;;15.60;;
9524;SDS011;15940;48.734;9.112;2023-02-11T03:29:11;25.03;;;15.37;;
9524;SDS011;15940;48.734;9.112;2023-02-11T03:31:45;22.17;;;14.43;;
9524;SDS011;15940;48.734;9.112;2023-02-11T03:34:22;22.97;;;14.50;;
9524;SDS011;15940;48.734;9.112;2023-02-11T03:37:02;24.40;;;14.77;;
9524;SDS011;15940;48.734;9.112;2023-02-11T03:39:35;21.47;;;14.43;;
9524;SDS011;15940;48.734;9.112;2023-02-11T03:42:08;20.53;;;13.63;;
9524;SDS011;15940;48.734;9.112;2023-02-11T03:44:39;21.97;;;13.93;;
9524;SDS011;15940;48.734;9.112;2023-02-11T03:47:11;22.10;;;13.33;;
9524;SDS011;15940;48.734;9.112;2023-02-11T03:49:42;21.40;;;13.70;;
9524;SDS011;15940;48.734;9.112;2023-02-11T03:52:14;21.30;;;13.67;;
9524;SDS011;15940;48.734;9.112;2023-02-11T03:54:47;20.00;;;13.10;;
9524;SDS011;15940;48.734;9.112;2023-02-11T03:57:18;19.90;;;13.20;;
9524;SDS011;15940;48.734;9.112;2023-02-11T03:59:51;18.97;;;12.77;;
9524;SDS011;15940;48.734;9.112;2023-02-11T04:02:23;18.83;;;13.40;;
9524;SDS011;15940;48.734;9.112;2023-02-11T04:04:54;21.83;;;13.87;;
9524;SDS011;15940;48.734;9.112;2023-02-11T04:07:23;20.10;;;13.77;;
9524;SDS011;15940;48.734;9.112;2023-02-11T04:09:50;22.57;;;13.83;;
9524;SDS011;15940;48.734;9.112;2023-02-11T04:12:18;25.40;;;13.97;;
9524;SDS011;15940;48.734;9.112;2023-02-11T04:14:46;22.03;;;14.30;;
9524;SDS011;15940;48.734;9.112;2023-02-11T04:17:13;22.87;;;13.70;;
9524;SDS011;15940;48.734;9.112;2023-02-11T04:19:43;22.83;;;14.17;;
9524;SDS011;15940;48.734;9.112;2023-02-11T04:22:20;20.43;;;14.17;;
9524;SDS011;15940;48.734;9.112;2023-02-11T04:24:49;20.80;;;14.07;;
9524;SDS011;15940;48.734;9.112;2023-02-11T04:27:18;23.60;;;14.67;;
9524;SDS011;15940;48.734;9.112;2023-02-11T04:29:45;22.63;;;14.77;;
9524;SDS011;15940;48.734;9.112;2023-02-11T04:32:13;25.17;;;13.87;;
9524;SDS011;15940;48.734;9.112;2023-02-11T04:34:42;22.67;;;14.23;;
9524;SDS011;15940;48.734;9.112;2023-02-11T04:37:09;19.53;;;13.30;;
9524;SDS011;15940;48.734;9.112;2023-02-11T04:39:38;20.40;;;14.00;;
9524;SDS011;15940;48.734;9.112;2023-02-11T04:42:06;20.97;;;13.27;;
9524;SDS011;15940;48.734;9.112;2023-02-11T04:44:36;20.93;;;13.50;;
9524;SDS011;15940;48.734;9.112;2023-02-11T04:47:05;22.67;;;13.63;;
9524;SDS011;15940;48.734;9.112;2023-02-11T04:49:31;21.90;;;14.20;;
9524;SDS011;15940;48.734;9.112;2023-02-11T04:52:02;20.50;;;13.97;;
9524;SDS011;15940;48.734;9.112;2023-02-11T04:54:29;23.23;;;14.43;;
9524;SDS011;15940;48.734;9.112;2023-02-11T04:56:57;20.57;;;14.07;;
9524;SDS011;15940;48.734;9.112;2023-02-11T04:59:24;20.37;;;13.53;;
9524;SDS011;15940;48.734;9.112;2023-02-11T05:01:51;23.97;;;14.70;;
9524;SDS011;15940;48.734;9.112;2023-02-11T05:04:18;23.13;;;15.10;;
9524;SDS011;15940;48.734;9.112;2023-02-11T05:06:47;22.90;;;14.67;;
9524;SDS011;15940;48.734;9.112;2023-02-11T05:09:14;24.13;;;15.47;;
9524;SDS011;15940;48.734;9.112;2023-02-11T05:11:44;25.97;;;16.13;;
9524;SDS011;15940;48.734;9.112;2023-02-11T05:14:15;23.40;;;15.47;;
9524;SDS011;15940;48.734;9.112;2023-02-11T05:16:42;25.07;;;16.03;;
9524;SDS011;15940;48.734;9.112;2023-02-11T05:19:10;24.43;;;15.80;;
9524;SDS011;15940;48.734;9.112;2023-02-11T05:21:47;21.77;;;14.23;;
9524;SDS011;15940;48.734;9.112;2023-02-11T05:24:14;26.87;;;16.00;;
9524;SDS011;15940;48.734;9.112;2023-02-11T05:26:41;24.43;;;16.03;;
9524;SDS011;15940;48.734;9.112;2023-02-11T05:29:08;24.70;;;16.10;;
9524;SDS011;15940;48.734;9.112;2023-02-11T05:31:38;20.80;;;14.37;;
9524;SDS011;15940;48.734;9.112;2023-02-11T05:34:05;22.60;;;15.20;;
9524;SDS011;15940;48.734;9.112;2023-02-11T05:36:32;20.80;;;14.00;;
9524;SDS011;15940;48.734;9.112;2023-02-11T05:38:59;25.17;;;14.77;;
9524;SDS011;15940;48.734;9.112;2023-02-11T05:41:26;21.53;;;14.77;;
9524;SDS011;15940;48.734;9.112;2023-02-11T05:43:53;21.90;;;14.13;;
9524;SDS011;15940;48.734;9.112;2023-02-11T05:46:19;18.93;;;13.37;;
9524;SDS011;15940;48.734;9.112;2023-02-11T05:48:48;21.53;;;13.57;;
9524;SDS011;15940;48.734;9.112;2023-02-11T05:51:15;20.27;;;14.10;;
9524;SDS011;15940;48.734;9.112;2023-02-11T05:53:43;20.87;;;13.60;;
9524;SDS011;15940;48.734;9.112;2023-02-11T05:56:10;20.97;;;13.37;;
9524;SDS011;15940;48.734;9.112;2023-02-11T05:58:38;19.57;;;14.00;;
9524;SDS011;15940;48.734;9.112;2023-02-11T06:01:05;22.40;;;13.00;;
9524;SDS011;15940;48.734;9.112;2023-02-11T06:03:32;18.97;;;13.70;;
9524;SDS011;15940;48.734;9.112;2023-02-11T06:06:01;22.97;;;14.67;;
9524;SDS011;15940;48.734;9.112;2023-02-11T06:08:29;22.57;;;13.53;;
9524;SDS011;15940;48.734;9.112;2023-02-11T06:10:56;19.57;;;13.30;;
9524;SDS011;15940;48.734;9.112;2023-02-11T06:13:23;18.53;;;13.27;;
9524;SDS011;15940;48.734;9.112;2023-02-11T06:15:57;23.77;;;13.50;;
9524;SDS011;15940;48.734;9.112;2023-02-11T06:18:26;22.50;;;13.33;;
9524;SDS011;15940;48.734;9.112;2023-02-11T06:20:54;22.90;;;13.90;;
9524;SDS011;15940;48.734;9.112;2023-02-11T06:23:32;22.50;;;13.80;;
9524;SDS011;15940;48.734;9.112;2023-02-11T06:26:00;20.17;;;12.90;;
9524;SDS011;15940;48.734;9.112;2023-02-11T06:28:29;20.50;;;14.33;;
9524;SDS011;15940;48.734;9.112;2023-02-11T06:30:56;21.00;;;14.10;;
9524;SDS011;15940;48.734;9.112;2023-02-11T06:33:23;19.20;;;13.77;;
9524;SDS011;15940;48.734;9.112;2023-02-11T06:35:50;20.53;;;13.63;;
9524;SDS011;15940;48.734;9.112;2023-02-11T06:38:18;16.07;;;11.77;;
9524;SDS011;15940;48.734;9.112;2023-02-11T06:40:47;18.03;;;12.47;;
9524;SDS011;15940;48.734;9.112;2023-02-11T06:43:16;19.37;;;12.10;;
9524;SDS011;15940;48.734;9.112;2023-02-11T06:45:51;19.10;;;12.27;;
9524;SDS011;15940;48.734;9.112;2023-02-11T06:48:22;15.90;;;11.73;;
9524;SDS011;15940;48.734;9.112;2023-02-11T06:50:49;16.40;;;12.03;;
9524;SDS011;15940;48.734;9.112;2023-02-11T06:53:16;20.73;;;13.07;;
9524;SDS011;15940;48.734;9.112;2023-02-11T06:55:43;22.10;;;13.90;;
9524;SDS011;15940;48.734;9.112;2023-02-11T06:58:12;19.60;;;12.97;;
9524;SDS011;15940;48.734;9.112;2023-02-11T07:00:39;17.10;;;12.43;;
9524;SDS011;15940;48.734;9.112;2023-02-11T07:03:06;21.07;;;13.27;;
9524;SDS011;15940;48.734;9.112;2023-02-11T07:05:33;17.03;;;11.93;;
9524;SDS011;15940;48.734;9.112;2023-02-11T07:08:02;18.80;;;12.80;;
9524;SDS011;15940;48.734;9.112;2023-02-11T07:10:30;18.43;;;12.27;;
9524;SDS011;15940;48.734;9.112;2023-02-11T07:12:57;19.93;;;12.83;;
9524;SDS011;15940;48.734;9.112;2023-02-11T07:15:27;21.00;;;13.77;;
9524;SDS011;15940;48.734;9.112;2023-02-11T07:17:54;23.70;;;15.53;;
9524;SDS011;15940;48.734;9.112;2023-02-11T07:20:22;19.47;;;14.27;;
9524;SDS011;15940;48.734;9.112;2023-02-11T07:22:49;24.80;;;16.17;;
9524;SDS011;15940;48.734;9.112;2023-02-11T07:25:16;23.30;;;15.97;;
9524;SDS011;15940;48.734;9.112;2023-02-11T07:27:43;24.37;;;15.40;;
9524;SDS011;15940;48.734;9.112;2023-02-11T07:30:11;22.60;;;15.30;;
9524;SDS011;15940;48.734;9.112;2023-02-11T07:32:44;18.70;;;13.17;;
9524;SDS011;15940;48.734;9.112;2023-02-11T07:35:13;20.00;;;13.40;;
9524;SDS011;15940;48.734;9.112;2023-02-11T07:37:40;21.23;;;13.20;;
9524;SDS011;15940;48.734;9.112;2023-02-11T07:40:08;19.47;;;13.13;;
9524;SDS011;15940;48.734;9.112;2023-02-11T07:42:38;18.93;;;12.63;;
9524;SDS011;15940;48.734;9.112;2023-02-11T07:45:05;21.73;;;12.30;;
9524;SDS011;15940;48.734;9.112;2023-02-11T07:47:34;17.47;;;12.90;;
9524;SDS011;15940;48.734;9.112;2023-02-11T07:50:03;18.03;;;12.60;;
9524;SDS011;15940;48.734;9.112;2023-02-11T07:52:31;18.87;;;12.60;;
9524;SDS011;15940;48.734;9.112;2023-02-11T07:55:00;17.70;;;13.20;;
9524;SDS011;15940;48.734;9.112;2023-02-11T07:57:28;16.10;;;10.50;;
9524;SDS011;15940;48.734;9.112;2023-02-11T07:59:55;13.93;;;10.63;;
9524;SDS011;15940;48.734;9.112;2023-02-11T08:02:22;13.57;;;10.43;;
9524;SDS011;15940;48.734;9.112;2023-02-11T08:04:49;14.33;;;10.00;;
9524;SDS011;15940;48.734;9.112;2023-02-11T08:07:18;12.57;;;9.47;;
9524;SDS011;15940;48.734;9.112;2023-02-11T08:09:48;16.87;;;9.97;;
9524;SDS011;15940;48.734;9.112;2023-02-11T08:12:16;13.47;;;9.70;;
9524;SDS011;15940;48.734;9.112;2023-02-11T08:14:45;13.73;;;9.10;;
9524;SDS011;15940;48.734;9.112;2023-02-11T08:17:14;13.00;;;9.20;;
9524;SDS011;15940;48.734;9.112;2023-02-11T08:19:41;13.73;;;9.53;;
9524;SDS011;15940;48.734;9.112;2023-02-11T08:22:18;11.87;;;8.30;;
9524;SDS011;15940;48.734;9.112;2023-02-11T08:24:47;11.17;;;8.47;;
9524;SDS011;15940;48.734;9.112;2023-02-11T08:27:14;11.63;;;8.10;;
9524;SDS011;15940;48.734;9.112;2023-02-11T08:29:41;12.17;;;8.50;;
9524;SDS011;15940;48.734;9.112;2023-02-11T08:32:09;10.90;;;8.83;;
9524;SDS011;15940;48.734;9.112;2023-02-11T08:34:36;12.13;;;8.53;;
9524;SDS011;15940;48.734;9.112;2023-02-11T08:37:03;9.83;;;7.87;;
9524;SDS011;15940;48.734;9.112;2023-02-11T08:39:31;9.00;;;7.70;;
9524;SDS011;15940;48.734;9.112;2023-02-11T08:41:58;9.83;;;7.90;;
9524;SDS011;15940;48.734;9.112;2023-02-11T08:44:27;10.87;;;7.40;;
9524;SDS011;15940;48.734;9.112;2023-02-11T08:46:55;9.67;;;7.60;;
9524;SDS011;15940;48.734;9.112;2023-02-11T08:49:22;9.73;;;7.83;;
9524;SDS011;15940;48.734;9.112;2023-02-11T08:51:49;10.60;;;7.50;;
9524;SDS011;15940;48.734;9.112;2023-02-11T08:54:16;10.90;;;7.97;;
9524;SDS011;15940;48.734;9.112;2023-02-11T08:56:44;12.40;;;8.30;;
9524;SDS011;15940;48.734;9.112;2023-02-11T08:59:17;10.00;;;7.73;;
9524;SDS011;15940;48.734;9.112;2023-02-11T09:01:44;11.30;;;8.27;;
9524;SDS011;15940;48.734;9.112;2023-02-11T09:04:11;10.40;;;8.03;;
9524;SDS011;15940;48.734;9.112;2023-02-11T09:06:39;11.77;;;8.40;;
9524;SDS011;15940;48.734;9.112;2023-02-11T09:09:08;13.87;;;9.97;;
9524;SDS011;15940;48.734;9.112;2023-02-11T09:11:38;12.53;;;9.33;;
9524;SDS011;15940;48.734;9.112;2023-02-11T09:14:10;11.87;;;9.70;;
9524;SDS011;15940;48.734;9.112;2023-02-11T09:16:43;14.03;;;9.67;;
9524;SDS011;15940;48.734;9.112;2023-02-11T09:19:10;12.90;;;9.03;;
9524;SDS011;15940;48.734;9.112;2023-02-11T09:21:37;12.63;;;8.83;;
9524;SDS011;15940;48.734;9.112;2023-02-11T09:24:04;12.87;;;9.30;;
9524;SDS011;15940;48.734;9.112;2023-02-11T09:26:32;11.37;;;8.93;;
9524;SDS011;15940;48.734;9.112;2023-02-11T09:29:02;13.60;;;9.13;;
9524;SDS011;15940;48.734;9.112;2023-02-11T09:31:32;10.67;;;8.33;;
9524;SDS011;15940;48.734;9.112;2023-02-11T09:34:00;10.97;;;7.80;;
9524;SDS011;15940;48.734;9.112;2023-02-11T09:36:30;8.97;;;7.17;;
9524;SDS011;15940;48.734;9.112;2023-02-11T09:39:02;10.40;;;7.93;;
9524;SDS011;15940;48.734;9.112;2023-02-11T09:41:36;12.10;;;8.00;;
9524;SDS011;15940;48.734;9.112;2023-02-11T09:44:20;10.37;;;7.77;;
9524;SDS011;15940;48.734;9.112;2023-02-11T09:46:54;8.70;;;7.27;;
9524;SDS011;15940;48.734;9.112;2023-02-11T09:49:24;8.57;;;7.47;;
9524;SDS011;15940;48.734;9.112;2023-02-11T09:52:02;11.77;;;7.60;;
9524;SDS011;15940;48.734;9.112;2023-02-11T09:54:35;10.57;;;7.60;;
9524;SDS011;15940;48.734;9.112;2023-02-11T09:57:12;8.97;;;7.23;;
9524;SDS011;15940;48.734;9.112;2023-02-11T09:59:39;11.17;;;9.00;;
9524;SDS011;15940;48.734;9.112;2023-02-11T10:02:12;15.23;;;10.83;;
9524;SDS011;15940;48.734;9.112;2023-02-11T10:04:59;14.57;;;10.77;;
9524;SDS011;15940;48.734;9.112;2023-02-11T10:07:59;16.33;;;11.20;;
9524;SDS011;15940;48.734;9.112;2023-02-11T10:14:38;13.90;;;11.03;;
9524;SDS011;15940;48.734;9.112;2023-02-11T10:17:31;13.97;;;10.73;;
9524;SDS011;15940;48.734;9.112;2023-02-11T10:20:15;15.63;;;11.43;;
9524;SDS011;15940;48.734;9.112;2023-02-11T10:22:57;15.83;;;11.27;;
9524;SDS011;15940;48.734;9.112;2023-02-11T10:25:29;13.30;;;10.20;;
9524;SDS011;15940;48.734;9.112;2023-02-11T10:28:09;13.00;;;10.67;;
9524;SDS011;15940;48.734;9.112;2023-02-11T10:30:41;12.97;;;9.53;;
9524;SDS011;15940;48.734;9.112;2023-02-11T10:33:22;11.50;;;9.73;;
9524;SDS011;15940;48.734;9.112;2023-02-11T10:35:54;10.77;;;9.63;;
9524;SDS011;15940;48.734;9.112;2023-02-11T10:38:21;9.43;;;7.43;;
9524;SDS011;15940;48.734;9.112;2023-02-11T10:40:48;8.93;;;6.20;;
9524;SDS011;15940;48.734;9.112;2023-02-11T10:43:16;9.43;;;6.80;;
9524;SDS011;15940;48.734;9.112;2023-02-11T10:45:50;9.90;;;7.13;;
9524;SDS011;15940;48.734;9.112;2023-02-11T10:48:36;8.87;;;6.77;;
9524;SDS011;15940;48.734;9.112;2023-02-11T10:51:18;10.23;;;6.83;;
9524;SDS011;15940;48.734;9.112;2023-02-11T10:53:48;8.43;;;6.50;;
9524;SDS011;15940;48.734;9.112;2023-02-11T10:56:39;8.40;;;6.57;;
9524;SDS011;15940;48.734;9.112;2023-02-11T10:59:14;9.73;;;5.90;;
9524;SDS011;15940;48.734;9.112;2023-02-11T11:01:58;8.60;;;6.43;;
9524;SDS011;15940;48.734;9.112;2023-02-11T11:04:36;8.80;;;5.47;;
9524;SDS011;15940;48.734;9.112;2023-02-11T11:07:19;6.50;;;5.60;;
9524;SDS011;15940;48.734;9.112;2023-02-11T11:09:54;5.70;;;5.07;;
9524;SDS011;15940;48.734;9.112;2023-02-11T11:12:29;6.07;;;5.43;;
9524;SDS011;15940;48.734;9.112;2023-02-11T11:15:12;6.90;;;5.80;;
9524;SDS011;15940;48.734;9.112;2023-02-11T11:17:45;8.17;;;5.83;;
9524;SDS011;15940;48.734;9.112;2023-02-11T11:20:20;6.70;;;5.93;;
9524;SDS011;15940;48.734;9.112;2023-02-11T11:23:05;9.50;;;5.73;;
9524;SDS011;15940;48.734;9.112;2023-02-11T11:25:42;6.60;;;5.80;;
9524;SDS011;15940;48.734;9.112;2023-02-11T11:28:24;6.97;;;5.60;;
9524;SDS011;15940;48.734;9.112;2023-02-11T11:30:54;7.30;;;6.03;;
9524;SDS011;15940;48.734;9.112;2023-02-11T11:33:25;8.13;;;5.53;;
9524;SDS011;15940;48.734;9.112;2023-02-11T11:36:01;8.67;;;6.20;;
9524;SDS011;15940;48.734;9.112;2023-02-11T11:38:34;11.50;;;6.53;;
9524;SDS011;15940;48.734;9.112;2023-02-11T11:41:17;9.00;;;6.00;;
9524;SDS011;15940;48.734;9.112;2023-02-11T11:43:58;8.77;;;6.40;;
9524;SDS011;15940;48.734;9.112;2023-02-11T11:46:37;7.70;;;6.10;;
9524;SDS011;15940;48.734;9.112;2023-02-11T11:49:12;9.47;;;6.77;;
9524;SDS011;15940;48.734;9.112;2023-02-11T11:52:09;7.03;;;5.80;;
9524;SDS011;15940;48.734;9.112;2023-02-11T11:55:00;7.07;;;5.93;;
9524;SDS011;15940;48.734;9.112;2023-02-11T11:57:40;7.50;;;6.33;;
9524;SDS011;15940;48.734;9.112;2023-02-11T12:00:13;7.30;;;5.97;;
9524;SDS011;15940;48.734;9.112;2023-02-11T12:02:49;8.60;;;6.53;;
9524;SDS011;15940;48.734;9.112;2023-02-11T12:06:03;8.70;;;6.20;;
9524;SDS011;15940;48.734;9.112;2023-02-11T12:09:33;7.13;;;6.40;;
9524;SDS011;15940;48.734;9.112;2023-02-11T12:12:19;6.90;;;6.20;;
9524;SDS011;15940;48.734;9.112;2023-02-11T12:15:10;7.50;;;4.80;;
9524;SDS011;15940;48.734;9.112;2023-02-11T12:17:59;5.23;;;4.60;;
9524;SDS011;15940;48.734;9.112;2023-02-11T12:20:48;7.83;;;5.07;;
9524;SDS011;15940;48.734;9.112;2023-02-11T12:23:37;5.83;;;4.87;;
9524;SDS011;15940;48.734;9.112;2023-02-11T12:26:19;4.90;;;4.40;;
9524;SDS011;15940;48.734;9.112;2023-02-11T12:28:57;5.70;;;4.70;;
9524;SDS011;15940;48.734;9.112;2023-02-11T12:31:38;6.27;;;5.00;;
9524;SDS011;15940;48.734;9.112;2023-02-11T12:37:27;8.33;;;4.40;;
9524;SDS011;15940;48.734;9.112;2023-02-11T12:40:14;4.97;;;4.43;;
9524;SDS011;15940;48.734;9.112;2023-02-11T12:42:53;9.53;;;7.40;;
9524;SDS011;15940;48.734;9.112;2023-02-11T12:45:56;11.40;;;7.97;;
9524;SDS011;15940;48.734;9.112;2023-02-11T12:52:11;9.60;;;8.17;;
9524;SDS011;15940;48.734;9.112;2023-02-11T12:54:54;11.67;;;7.10;;
9524;SDS011;15940;48.734;9.112;2023-02-11T12:57:29;8.07;;;7.17;;
9524;SDS011;15940;48.734;9.112;2023-02-11T13:00:02;10.07;;;7.07;;
9524;SDS011;15940;48.734;9.112;2023-02-11T13:02:35;9.20;;;7.13;;
9524;SDS011;15940;48.734;9.112;2023-02-11T13:05:13;8.50;;;6.80;;
9524;SDS011;15940;48.734;9.112;2023-02-11T13:07:51;8.93;;;7.43;;
9524;SDS011;15940;48.734;9.112;2023-02-11T13:10:29;7.93;;;7.10;;
9524;SDS011;15940;48.734;9.112;2023-02-11T13:13:01;7.50;;;6.70;;
9524;SDS011;15940;48.734;9.112;2023-02-11T13:18:38;8.93;;;6.60;;
9524;SDS011;15940;48.734;9.112;2023-02-11T13:21:25;9.03;;;6.43;;
9524;SDS011;15940;48.734;9.112;2023-02-11T13:24:33;7.27;;;5.97;;
9524;SDS011;15940;48.734;9.112;2023-02-11T13:27:14;9.47;;;6.43;;
9524;SDS011;15940;48.734;9.112;2023-02-11T13:30:15;6.87;;;6.17;;
9524;SDS011;15940;48.734;9.112;2023-02-11T13:35:47;7.23;;;5.60;;
9524;SDS011;15940;48.734;9.112;2023-02-11T13:38:30;10.30;;;5.20;;
9524;SDS011;15940;48.734;9.112;2023-02-11T13:41:00;6.97;;;5.07;;
9524;SDS011;15940;48.734;9.112;2023-02-11T13:43:32;6.67;;;5.70;;
9524;SDS011;15940;48.734;9.112;2023-02-11T13:46:05;6.63;;;5.73;;
9524;SDS011;15940;48.734;9.112;2023-02-11T13:48:47;7.37;;;5.80;;
9524;SDS011;15940;48.734;9.112;2023-02-11T13:51:34;6.20;;;5.60;;
9524;SDS011;15940;48.734;9.112;2023-02-11T13:54:03;6.97;;;5.63;;
9524;SDS011;15940;48.734;9.112;2023-02-11T14:06:26;9.13;;;6.43;;
9524;SDS011;15940;48.734;9.112;2023-02-11T14:15:09;9.37;;;7.00;;
9524;SDS011;15940;48.734;9.112;2023-02-11T14:17:51;11.33;;;7.87;;
9524;SDS011;15940;48.734;9.112;2023-02-11T14:23:20;11.80;;;8.27;;
9524;SDS011;15940;48.734;9.112;2023-02-11T14:26:01;9.67;;;7.73;;
9524;SDS011;15940;48.734;9.112;2023-02-11T14:29:01;13.30;;;10.17;;
9524;SDS011;15940;48.734;9.112;2023-02-11T14:31:39;12.77;;;9.33;;
9524;SDS011;15940;48.734;9.112;2023-02-11T14:34:17;20.10;;;9.67;;
9524;SDS011;15940;48.734;9.112;2023-02-11T14:37:08;14.70;;;8.93;;
9524;SDS011;15940;48.734;9.112;2023-02-11T14:39:55;12.33;;;9.80;;
9524;SDS011;15940;48.734;9.112;2023-02-11T14:42:36;10.03;;;8.73;;
9524;SDS011;15940;48.734;9.112;2023-02-11T14:45:04;13.00;;;9.70;;
9524;SDS011;15940;48.734;9.112;2023-02-11T14:47:44;16.73;;;11.57;;
9524;SDS011;15940;48.734;9.112;2023-02-11T14:50:21;14.30;;;10.17;;
9524;SDS011;15940;48.734;9.112;2023-02-11T14:52:52;13.47;;;10.93;;
9524;SDS011;15940;48.734;9.112;2023-02-11T14:55:29;16.80;;;10.63;;
9524;SDS011;15940;48.734;9.112;2023-02-11T14:58:11;13.27;;;10.27;;
9524;SDS011;15940;48.734;9.112;2023-02-11T15:00:48;15.97;;;11.37;;
9524;SDS011;15940;48.734;9.112;2023-02-11T15:03:27;14.40;;;10.90;;
9524;SDS011;15940;48.734;9.112;2023-02-11T15:06:03;14.77;;;10.90;;
9524;SDS011;15940;48.734;9.112;2023-02-11T15:08:40;17.60;;;10.70;;
9524;SDS011;15940;48.734;9.112;2023-02-11T15:11:14;13.27;;;9.17;;
9524;SDS011;15940;48.734;9.112;2023-02-11T15:13:47;13.77;;;9.80;;
9524;SDS011;15940;48.734;9.112;2023-02-11T15:16:17;11.97;;;9.20;;
9524;SDS011;15940;48.734;9.112;2023-02-11T15:18:50;14.53;;;9.63;;
9524;SDS011;15940;48.734;9.112;2023-02-11T15:21:20;11.17;;;8.87;;
9524;SDS011;15940;48.734;9.112;2023-02-11T15:23:54;11.47;;;8.47;;
9524;SDS011;15940;48.734;9.112;2023-02-11T15:26:32;10.70;;;8.43;;
9524;SDS011;15940;48.734;9.112;2023-02-11T15:28:59;10.23;;;8.40;;
9524;SDS011;15940;48.734;9.112;2023-02-11T15:31:29;11.63;;;8.47;;
9524;SDS011;15940;48.734;9.112;2023-02-11T15:33:56;11.97;;;9.17;;
9524;SDS011;15940;48.734;9.112;2023-02-11T15:36:34;18.87;;;12.00;;
9524;SDS011;15940;48.734;9.112;2023-02-11T15:39:14;13.43;;;10.50;;
9524;SDS011;15940;48.734;9.112;2023-02-11T15:41:49;13.87;;;10.40;;
9524;SDS011;15940;48.734;9.112;2023-02-11T15:44:28;14.87;;;11.43;;
9524;SDS011;15940;48.734;9.112;2023-02-11T15:46:58;15.13;;;11.57;;
9524;SDS011;15940;48.734;9.112;2023-02-11T15:49:27;14.13;;;11.60;;
9524;SDS011;15940;48.734;9.112;2023-02-11T15:51:54;14.57;;;11.40;;
9524;SDS011;15940;48.734;9.112;2023-02-11T15:54:23;16.20;;;11.80;;
9524;SDS011;15940;48.734;9.112;2023-02-11T15:57:00;15.57;;;12.20;;
9524;SDS011;15940;48.734;9.112;2023-02-11T15:59:35;14.50;;;12.10;;
9524;SDS011;15940;48.734;9.112;2023-02-11T16:02:06;15.13;;;12.37;;
9524;SDS011;15940;48.734;9.112;2023-02-11T16:04:48;18.67;;;13.13;;
9524;SDS011;15940;48.734;9.112;2023-02-11T16:07:41;16.77;;;13.00;;